createdAt,value
2022-11-06T00:00:32.195Z,100336.00
2022-11-06T00:03:00.871Z,100337.00
2022-11-06T00:05:48.151Z,100336.00
2022-11-06T00:08:16.807Z,100323.00
2022-11-06T00:10:44.475Z,100321.00
2022-11-06T00:13:11.771Z,100322.00
2022-11-06T00:15:39.235Z,100326.00
2022-11-06T00:18:06.775Z,100324.00
2022-11-06T00:20:34.508Z,100321.00
2022-11-06T00:23:02.080Z,100321.00
2022-11-06T00:25:29.581Z,100321.00
2022-11-06T00:27:57.202Z,100336.00
2022-11-06T00:30:25.248Z,100326.00
2022-11-06T00:32:52.776Z,100332.00
2022-11-06T00:35:20.332Z,100326.00
2022-11-06T00:37:47.897Z,100324.00
2022-11-06T00:40:15.543Z,100323.00
2022-11-06T00:42:43.045Z,100320.00
2022-11-06T00:45:10.728Z,100319.00
2022-11-06T00:47:38.142Z,100322.00
2022-11-06T00:50:06.352Z,100314.00
2022-11-06T00:52:33.888Z,100318.00
2022-11-06T00:55:02.495Z,100312.00
2022-11-06T00:57:30.274Z,100319.00
2022-11-06T00:59:57.884Z,100310.00
2022-11-06T01:02:25.342Z,100317.00
2022-11-06T01:04:52.975Z,100321.00
2022-11-06T01:07:20.497Z,100323.00
2022-11-06T01:09:47.873Z,100323.00
2022-11-06T01:12:15.386Z,100320.00
2022-11-06T01:14:44.164Z,100317.00
2022-11-06T01:17:12.472Z,100319.00
2022-11-06T01:19:40.577Z,100315.00
2022-11-06T01:22:08.129Z,100310.00
2022-11-06T01:24:35.663Z,100304.00
2022-11-06T01:29:50.790Z,100301.00
2022-11-06T01:32:18.489Z,100304.00
2022-11-06T01:34:46.998Z,100309.00
2022-11-06T01:37:15.060Z,100307.00
2022-11-06T01:39:42.860Z,100304.00
2022-11-06T01:42:15.044Z,100299.00
2022-11-06T01:44:45.318Z,100290.00
2022-11-06T01:47:26.083Z,100282.00
2022-11-06T01:49:58.558Z,100294.00
2022-11-06T01:52:27.670Z,100285.00
2022-11-06T01:55:00.695Z,100288.00
2022-11-06T01:57:28.302Z,100285.00
2022-11-06T01:59:56.490Z,100283.00
2022-11-06T02:02:24.732Z,100287.00
2022-11-06T02:04:52.293Z,100281.00
2022-11-06T02:07:21.258Z,100283.00
2022-11-06T02:09:48.685Z,100273.00
2022-11-06T02:12:53.453Z,100275.00
2022-11-06T02:15:54.661Z,100276.00
2022-11-06T02:19:12.538Z,100283.00
2022-11-06T02:22:35.395Z,100270.00
2022-11-06T02:25:29.763Z,100272.00
2022-11-06T02:28:27.088Z,100261.00
2022-11-06T02:30:58.882Z,100265.00
2022-11-06T02:33:35.919Z,100265.00
2022-11-06T02:36:16.628Z,100269.00
2022-11-06T02:38:59.628Z,100268.00
2022-11-06T02:41:34.638Z,100267.00
2022-11-06T02:44:07.391Z,100262.00
2022-11-06T02:46:46.792Z,100259.00
2022-11-06T02:49:40.677Z,100249.00
2022-11-06T02:52:29.648Z,100247.00
2022-11-06T02:55:30.214Z,100255.00
2022-11-06T02:58:08.696Z,100249.00
2022-11-06T03:00:38.312Z,100242.00
2022-11-06T03:03:15.079Z,100248.00
2022-11-06T03:06:14.757Z,100249.00
2022-11-06T03:08:59.712Z,100253.00
2022-11-06T03:11:33.735Z,100254.00
2022-11-06T03:14:13.747Z,100255.00
2022-11-06T03:17:11.090Z,100259.00
2022-11-06T03:20:04.710Z,100242.00
2022-11-06T03:22:49.255Z,100238.00
2022-11-06T03:26:11.670Z,100237.00
2022-11-06T03:28:54.355Z,100247.00
2022-11-06T03:31:41.062Z,100247.00
2022-11-06T03:34:15.549Z,100249.00
2022-11-06T03:36:50.203Z,100251.00
2022-11-06T03:39:29.304Z,100247.00
2022-11-06T03:42:15.581Z,100235.00
2022-11-06T03:44:51.918Z,100237.00
2022-11-06T03:47:37.350Z,100234.00
2022-11-06T03:50:24.409Z,100241.00
2022-11-06T03:52:57.561Z,100235.00
2022-11-06T03:55:42.947Z,100239.00
2022-11-06T03:58:19.700Z,100222.00
2022-11-06T04:00:48.061Z,100223.00
2022-11-06T04:03:39.929Z,100227.00
2022-11-06T04:06:35.796Z,100229.00
2022-11-06T04:09:25.677Z,100223.00
2022-11-06T04:12:12.851Z,100223.00
2022-11-06T04:14:45.664Z,100227.00
2022-11-06T04:17:14.738Z,100225.00
2022-11-06T04:20:08.215Z,100222.00
2022-11-06T04:22:55.617Z,100220.00
2022-11-06T04:26:04.383Z,100210.00
2022-11-06T04:29:03.404Z,100209.00
2022-11-06T04:32:02.438Z,100213.00
2022-11-06T04:35:13.038Z,100213.00
2022-11-06T04:38:20.596Z,100218.00
2022-11-06T04:41:22.553Z,100219.00
2022-11-06T04:44:14.694Z,100226.00
2022-11-06T04:46:53.633Z,100218.00
2022-11-06T04:49:23.899Z,100221.00
2022-11-06T04:51:52.303Z,100208.00
2022-11-06T04:54:20.212Z,100201.00
2022-11-06T04:56:47.837Z,100210.00
2022-11-06T04:59:17.982Z,100206.00
2022-11-06T05:01:46.916Z,100206.00
2022-11-06T05:04:14.779Z,100206.00
2022-11-06T05:06:42.229Z,100213.00
2022-11-06T05:09:09.791Z,100204.00
2022-11-06T05:11:38.683Z,100201.00
2022-11-06T05:14:06.316Z,100208.00
2022-11-06T05:16:33.924Z,100211.00
2022-11-06T05:19:01.342Z,100213.00
2022-11-06T05:21:47.526Z,100211.00
2022-11-06T05:24:15.031Z,100211.00
2022-11-06T05:26:42.533Z,100206.00
2022-11-06T05:29:12.079Z,100210.00
2022-11-06T05:31:39.729Z,100205.00
2022-11-06T05:34:07.438Z,100208.00
2022-11-06T05:36:37.430Z,100206.00
2022-11-06T05:39:04.978Z,100202.00
2022-11-06T05:41:32.433Z,100205.00
2022-11-06T05:44:00.067Z,100205.00
2022-11-06T05:46:47.717Z,100212.00
2022-11-06T05:49:15.346Z,100210.00
2022-11-06T05:51:42.792Z,100210.00
2022-11-06T05:54:10.256Z,100207.00
2022-11-06T05:56:37.921Z,100195.00
2022-11-06T05:59:05.537Z,100205.00
2022-11-06T06:01:33.285Z,100206.00
2022-11-06T06:04:01.103Z,100213.00
2022-11-06T06:06:28.829Z,100214.00
2022-11-06T06:08:56.207Z,100208.00
2022-11-06T06:11:23.600Z,100205.00
2022-11-06T06:13:51.028Z,100205.00
2022-11-06T06:16:18.684Z,100204.00
2022-11-06T06:18:50.044Z,100196.00
2022-11-06T06:21:18.307Z,100194.00
2022-11-06T06:23:45.799Z,100192.00
2022-11-06T06:26:13.267Z,100186.00
2022-11-06T06:28:40.919Z,100177.00
2022-11-06T06:31:10.010Z,100173.00
2022-11-06T06:33:37.768Z,100174.00
2022-11-06T06:36:06.542Z,100167.00
2022-11-06T06:38:34.025Z,100162.00
2022-11-06T06:41:07.152Z,100167.00
2022-11-06T06:43:35.998Z,100174.00
2022-11-06T06:46:06.559Z,100174.00
2022-11-06T06:48:34.298Z,100180.00
2022-11-06T06:51:03.436Z,100175.00
2022-11-06T06:53:32.041Z,100174.00
2022-11-06T06:56:00.954Z,100174.00
2022-11-06T06:58:32.005Z,100173.00
2022-11-06T07:01:05.049Z,100175.00
2022-11-06T07:03:33.135Z,100174.00
2022-11-06T07:06:00.608Z,100179.00
2022-11-06T07:08:28.876Z,100175.00
2022-11-06T07:11:10.543Z,100170.00
2022-11-06T07:13:38.344Z,100170.00
2022-11-06T07:16:10.198Z,100167.00
2022-11-06T07:18:38.946Z,100167.00
2022-11-06T07:21:12.613Z,100167.00
2022-11-06T07:23:40.621Z,100162.00
2022-11-06T07:26:09.192Z,100155.00
2022-11-06T07:28:36.959Z,100157.00
2022-11-06T07:31:07.453Z,100171.00
2022-11-06T07:33:36.180Z,100162.00
2022-11-06T07:36:12.375Z,100163.00
2022-11-06T07:38:42.484Z,100168.00
2022-11-06T07:41:14.192Z,100168.00
2022-11-06T07:43:42.915Z,100166.00
2022-11-06T07:46:12.958Z,100178.00
2022-11-06T07:48:40.556Z,100163.00
2022-11-06T07:51:10.847Z,100166.00
2022-11-06T07:53:38.876Z,100170.00
2022-11-06T07:56:06.959Z,100171.00
2022-11-06T07:58:34.833Z,100167.00
2022-11-06T08:01:03.017Z,100160.00
2022-11-06T08:03:30.668Z,100156.00
2022-11-06T08:06:05.460Z,100166.00
2022-11-06T08:08:33.466Z,100167.00
2022-11-06T08:11:10.499Z,100157.00
2022-11-06T08:13:38.797Z,100153.00
2022-11-06T08:16:06.782Z,100153.00
2022-11-06T08:18:35.088Z,100151.00
2022-11-06T08:21:03.273Z,100147.00
2022-11-06T08:23:30.758Z,100146.00
2022-11-06T08:26:01.413Z,100143.00
2022-11-06T08:28:29.259Z,100147.00
2022-11-06T08:30:56.806Z,100147.00
2022-11-06T08:33:24.723Z,100144.00
2022-11-06T08:35:52.020Z,100138.00
2022-11-06T08:38:20.177Z,100139.00
2022-11-06T08:40:53.234Z,100140.00
2022-11-06T08:43:24.446Z,100135.00
2022-11-06T08:45:52.528Z,100141.00
2022-11-06T08:48:20.037Z,100132.00
2022-11-06T08:50:47.641Z,100130.00
2022-11-06T08:53:15.638Z,100128.00
2022-11-06T08:55:43.422Z,100131.00
2022-11-06T08:58:11.080Z,100125.00
2022-11-06T09:00:38.817Z,100116.00
2022-11-06T09:03:10.639Z,100117.00
2022-11-06T09:05:43.878Z,100127.00
2022-11-06T09:08:12.910Z,100116.00
2022-11-06T09:10:42.992Z,100121.00
2022-11-06T09:13:11.787Z,100123.00
2022-11-06T09:15:40.216Z,100135.00
2022-11-06T09:18:08.588Z,100130.00
2022-11-06T09:20:36.460Z,100130.00
2022-11-06T09:23:07.302Z,100123.00
2022-11-06T09:25:34.860Z,100131.00
2022-11-06T09:28:02.381Z,100118.00
2022-11-06T09:30:32.373Z,100114.00
2022-11-06T09:33:02.218Z,100121.00
2022-11-06T09:35:33.238Z,100115.00
2022-11-06T09:38:06.523Z,100114.00
2022-11-06T09:40:44.644Z,100109.00
2022-11-06T09:44:03.417Z,100110.00
2022-11-06T09:46:49.208Z,100110.00
2022-11-06T09:49:31.627Z,100107.00
2022-11-06T09:52:12.802Z,100107.00
2022-11-06T09:55:05.764Z,100112.00
2022-11-06T09:57:42.439Z,100109.00
2022-11-06T10:00:16.356Z,100110.00
2022-11-06T10:02:50.179Z,100111.00
2022-11-06T10:05:36.370Z,100103.00
2022-11-06T10:08:11.200Z,100093.00
2022-11-06T10:11:23.196Z,100084.00
2022-11-06T10:14:25.713Z,100079.00
2022-11-06T10:17:19.206Z,100074.00
2022-11-06T10:20:32.182Z,100067.00
2022-11-06T10:23:30.545Z,100069.00
2022-11-06T10:26:12.503Z,100062.00
2022-11-06T10:29:19.067Z,100064.00
2022-11-06T10:32:25.606Z,100062.00
2022-11-06T10:35:24.378Z,100061.00
2022-11-06T10:37:59.530Z,100070.00
2022-11-06T10:40:30.832Z,100062.00
2022-11-06T10:43:14.901Z,100066.00
2022-11-06T10:45:47.563Z,100054.00
2022-11-06T10:48:47.275Z,100063.00
2022-11-06T10:51:41.960Z,100060.00
2022-11-06T10:54:51.220Z,100058.00
2022-11-06T10:57:29.170Z,100057.00
2022-11-06T10:59:56.731Z,100057.00
2022-11-06T11:02:34.934Z,100051.00
2022-11-06T11:05:02.637Z,100051.00
2022-11-06T11:07:35.269Z,100046.00
2022-11-06T11:10:32.334Z,100037.00
2022-11-06T11:13:08.139Z,100031.00
2022-11-06T11:15:46.852Z,100026.00
2022-11-06T11:18:20.078Z,100030.00
2022-11-06T11:20:50.688Z,100020.00
2022-11-06T11:23:25.194Z,100019.00
2022-11-06T11:25:55.537Z,100007.00
2022-11-06T11:28:33.257Z,100014.00
2022-11-06T11:31:15.516Z,100011.00
2022-11-06T11:33:52.033Z,99998.00
2022-11-06T11:36:19.638Z,100002.00
2022-11-06T11:38:47.908Z,99981.00
2022-11-06T11:41:24.685Z,99974.00
2022-11-06T11:44:17.623Z,99970.00
2022-11-06T11:46:55.354Z,99973.00
2022-11-06T11:49:35.029Z,99962.00
2022-11-06T11:52:05.495Z,99963.00
2022-11-06T11:54:35.826Z,99959.00
2022-11-06T11:57:11.573Z,99955.00
2022-11-06T12:00:22.744Z,99951.00
2022-11-06T12:03:03.802Z,99939.00
2022-11-06T12:05:39.073Z,99938.00
2022-11-06T12:16:47.697Z,99915.00
2022-11-06T12:19:49.843Z,99915.00
2022-11-06T12:22:56.557Z,99904.00
2022-11-06T12:26:00.033Z,99903.00
2022-11-06T12:28:39.962Z,99902.00
2022-11-06T12:31:26.948Z,99898.00
2022-11-06T12:34:09.899Z,99896.00
2022-11-06T12:38:08.372Z,99898.00
2022-11-06T12:41:31.860Z,99876.00
2022-11-06T12:49:20.601Z,99890.00
2022-11-06T12:52:33.373Z,99885.00
2022-11-06T12:55:47.583Z,99879.00
2022-11-06T12:59:06.886Z,99872.00
2022-11-06T13:05:52.794Z,99839.00
2022-11-06T13:12:40.592Z,99863.00
2022-11-06T13:22:56.437Z,99810.00
2022-11-06T13:34:55.900Z,99822.00
2022-11-06T13:37:43.299Z,99809.00
2022-11-06T13:40:38.835Z,99803.00
2022-11-06T13:43:34.409Z,99797.00
2022-11-06T13:46:39.378Z,99794.00
2022-11-06T13:49:18.266Z,99796.00
2022-11-06T13:51:57.894Z,99797.00
2022-11-06T13:54:40.631Z,99794.00
2022-11-06T13:57:51.523Z,99788.00
2022-11-06T14:00:20.343Z,99786.00
2022-11-06T14:03:57.716Z,99784.00
2022-11-06T14:06:33.644Z,99775.00
2022-11-06T14:09:07.056Z,99772.00
2022-11-06T14:11:39.119Z,99773.00
2022-11-06T14:14:12.773Z,99773.00
2022-11-06T14:16:45.750Z,99765.00
2022-11-06T14:19:21.194Z,99760.00
2022-11-06T14:22:30.426Z,99751.00
2022-11-06T14:25:02.064Z,99751.00
2022-11-06T14:27:29.775Z,99752.00
2022-11-06T14:30:15.230Z,99744.00
2022-11-06T14:32:46.184Z,99743.00
2022-11-06T14:35:35.009Z,99730.00
2022-11-06T14:38:29.657Z,99728.00
2022-11-06T14:40:58.485Z,99725.00
2022-11-06T14:43:36.642Z,99730.00
2022-11-06T14:46:07.671Z,99724.00
2022-11-06T14:48:41.446Z,99716.00
2022-11-06T14:51:11.807Z,99711.00
2022-11-06T14:53:53.907Z,99709.00
2022-11-06T14:56:26.795Z,99717.00
2022-11-06T14:59:02.960Z,99717.00
2022-11-06T15:01:34.058Z,99716.00
2022-11-06T15:04:12.817Z,99707.00
2022-11-06T15:06:47.653Z,99700.00
2022-11-06T15:09:24.215Z,99690.00
2022-11-06T15:12:05.253Z,99678.00
2022-11-06T15:14:32.559Z,99691.00
2022-11-06T15:17:14.718Z,99702.00
2022-11-06T15:19:48.018Z,99698.00
2022-11-06T15:22:17.184Z,99716.00
2022-11-06T15:25:17.225Z,99714.00
2022-11-06T15:27:55.906Z,99705.00
2022-11-06T15:30:23.778Z,99709.00
2022-11-06T15:32:54.303Z,99697.00
2022-11-06T15:35:27.788Z,99710.00
2022-11-06T15:38:11.429Z,99717.00
2022-11-06T15:40:41.255Z,99723.00
2022-11-06T15:43:30.579Z,99728.00
2022-11-06T15:46:24.345Z,99731.00
2022-11-06T15:49:17.209Z,99728.00
2022-11-06T15:52:02.116Z,99733.00
2022-11-06T15:54:38.451Z,99731.00
2022-11-06T15:57:28.285Z,99736.00
2022-11-06T16:00:19.767Z,99737.00
2022-11-06T16:03:02.475Z,99735.00
2022-11-06T16:05:34.147Z,99738.00
2022-11-06T16:08:02.462Z,99742.00
2022-11-06T16:10:30.476Z,99735.00
2022-11-06T16:12:58.310Z,99736.00
2022-11-06T16:15:44.201Z,99720.00
2022-11-06T16:18:30.581Z,99721.00
2022-11-06T16:21:19.627Z,99716.00
2022-11-06T16:23:54.984Z,99702.00
2022-11-06T16:26:35.756Z,99692.00
2022-11-06T16:29:17.597Z,99695.00
2022-11-06T16:31:46.792Z,99699.00
2022-11-06T16:34:42.208Z,99694.00
2022-11-06T16:37:19.089Z,99701.00
2022-11-06T16:39:53.858Z,99700.00
2022-11-06T16:42:36.135Z,99697.00
2022-11-06T16:45:20.852Z,99685.00
2022-11-06T16:48:06.461Z,99686.00
2022-11-06T16:50:46.278Z,99673.00
2022-11-06T16:53:20.664Z,99669.00
2022-11-06T16:56:07.924Z,99672.00
2022-11-06T16:58:53.088Z,99673.00
2022-11-06T17:01:21.231Z,99673.00
2022-11-06T17:04:01.972Z,99678.00
2022-11-06T17:06:35.270Z,99690.00
2022-11-06T17:09:24.286Z,99680.00
2022-11-06T17:11:54.296Z,99687.00
2022-11-06T17:14:22.572Z,99688.00
2022-11-06T17:16:59.525Z,99686.00
2022-11-06T17:19:30.944Z,99694.00
2022-11-06T17:21:58.660Z,99684.00
2022-11-06T17:24:41.603Z,99699.00
2022-11-06T17:27:09.386Z,99693.00
2022-11-06T17:29:37.097Z,99698.00
2022-11-06T17:32:05.438Z,99687.00
2022-11-06T17:34:32.852Z,99692.00
2022-11-06T17:37:00.363Z,99695.00
2022-11-06T17:39:27.825Z,99698.00
2022-11-06T17:41:55.415Z,99692.00
2022-11-06T17:44:22.959Z,99699.00
2022-11-06T17:46:50.823Z,99691.00
2022-11-06T17:49:18.915Z,99687.00
2022-11-06T17:52:00.547Z,99694.00
2022-11-06T17:54:34.040Z,99690.00
2022-11-06T17:57:04.562Z,99688.00
2022-11-06T17:59:32.888Z,99681.00
2022-11-06T18:02:00.884Z,99681.00
2022-11-06T18:04:31.634Z,99670.00
2022-11-06T18:06:59.268Z,99670.00
2022-11-06T18:09:26.917Z,99660.00
2022-11-06T18:11:55.994Z,99653.00
2022-11-06T18:14:25.981Z,99649.00
2022-11-06T18:16:54.281Z,99645.00
2022-11-06T18:19:24.595Z,99647.00
2022-11-06T18:21:52.651Z,99638.00
2022-11-06T18:24:20.087Z,99633.00
2022-11-06T18:26:47.498Z,99630.00
2022-11-06T18:29:16.447Z,99622.00
2022-11-06T18:31:44.073Z,99607.00
2022-11-06T18:34:20.561Z,99598.00
2022-11-06T18:36:50.807Z,99605.00
2022-11-06T18:39:18.877Z,99600.00
2022-11-06T18:41:46.581Z,99599.00
2022-11-06T18:44:17.387Z,99601.00
2022-11-06T18:46:48.402Z,99612.00
2022-11-06T18:49:16.376Z,99593.00
2022-11-06T18:51:44.340Z,99592.00
2022-11-06T18:54:12.917Z,99575.00
2022-11-06T18:56:40.600Z,99581.00
2022-11-06T18:59:13.870Z,99586.00
2022-11-06T19:01:41.572Z,99573.00
2022-11-06T19:04:11.087Z,99570.00
2022-11-06T19:06:39.743Z,99573.00
2022-11-06T19:09:08.999Z,99586.00
2022-11-06T19:11:36.914Z,99581.00
2022-11-06T19:14:04.669Z,99591.00
2022-11-06T19:16:32.109Z,99575.00
2022-11-06T19:19:06.161Z,99566.00
2022-11-06T19:21:35.916Z,99561.00
2022-11-06T19:24:05.964Z,99556.00
2022-11-06T19:26:36.168Z,99537.00
2022-11-06T19:29:07.779Z,99532.00
2022-11-06T19:31:37.586Z,99537.00
2022-11-06T19:34:07.303Z,99535.00
2022-11-06T19:36:35.725Z,99533.00
2022-11-06T19:39:03.719Z,99542.00
2022-11-06T19:41:31.560Z,99544.00
2022-11-06T19:43:59.766Z,99551.00
2022-11-06T19:46:33.887Z,99553.00
2022-11-06T19:49:05.027Z,99546.00
2022-11-06T19:51:33.628Z,99549.00
2022-11-06T19:54:05.939Z,99543.00
2022-11-06T19:56:34.018Z,99540.00
2022-11-06T19:59:02.450Z,99544.00
2022-11-06T20:01:30.238Z,99530.00
2022-11-06T20:03:57.892Z,99538.00
2022-11-06T20:06:27.597Z,99547.00
2022-11-06T20:08:55.231Z,99539.00
2022-11-06T20:11:22.940Z,99545.00
2022-11-06T20:13:50.380Z,99554.00
2022-11-06T20:16:21.396Z,99545.00
2022-11-06T20:18:54.861Z,99548.00
2022-11-06T20:21:23.668Z,99554.00
2022-11-06T20:23:51.329Z,99549.00
2022-11-06T20:26:19.375Z,99560.00
2022-11-06T20:28:47.276Z,99566.00
2022-11-06T20:31:19.542Z,99576.00
2022-11-06T20:33:47.419Z,99579.00
2022-11-06T20:36:25.396Z,99575.00
2022-11-06T20:38:56.670Z,99581.00
2022-11-06T20:41:25.086Z,99577.00
2022-11-06T20:43:53.321Z,99579.00
2022-11-06T20:46:22.986Z,99557.00
2022-11-06T20:48:51.509Z,99549.00
2022-11-06T20:51:26.009Z,99550.00
2022-11-06T20:53:54.082Z,99564.00
2022-11-06T20:56:25.660Z,99555.00
2022-11-06T20:58:57.337Z,99554.00
2022-11-06T21:01:28.687Z,99563.00
2022-11-06T21:03:57.652Z,99553.00
2022-11-06T21:06:26.952Z,99540.00
2022-11-06T21:08:55.817Z,99544.00
2022-11-06T21:11:27.179Z,99566.00
2022-11-06T21:13:55.551Z,99546.00
2022-11-06T21:16:28.111Z,99537.00
2022-11-06T21:18:55.684Z,99548.00
2022-11-06T21:21:26.559Z,99537.00
2022-11-06T21:23:55.748Z,99533.00
2022-11-06T21:26:29.538Z,99553.00
2022-11-06T21:28:57.385Z,99563.00
2022-11-06T21:31:27.577Z,99562.00
2022-11-06T21:33:57.538Z,99557.00
2022-11-06T21:36:37.352Z,99555.00
2022-11-06T21:39:12.738Z,99546.00
2022-11-06T21:41:40.597Z,99539.00
2022-11-06T21:44:08.320Z,99541.00
2022-11-06T21:46:36.821Z,99542.00
2022-11-06T21:49:05.531Z,99530.00
2022-11-06T21:51:33.879Z,99522.00
2022-11-06T21:54:20.991Z,99522.00
2022-11-06T21:56:50.557Z,99515.00
2022-11-06T21:59:20.857Z,99503.00
2022-11-06T22:01:48.504Z,99494.00
2022-11-06T22:04:16.062Z,99489.00
2022-11-06T22:06:44.096Z,99484.00
2022-11-06T22:09:13.923Z,99506.00
2022-11-06T22:11:44.138Z,99487.00
2022-11-06T22:14:17.029Z,99484.00
2022-11-06T22:16:47.175Z,99500.00
2022-11-06T22:19:16.449Z,99501.00
2022-11-06T22:21:43.883Z,99508.00
2022-11-06T22:24:13.256Z,99517.00
2022-11-06T22:26:41.275Z,99512.00
2022-11-06T22:29:15.471Z,99511.00
2022-11-06T22:31:43.306Z,99509.00
2022-11-06T22:34:12.717Z,99507.00
2022-11-06T22:36:41.442Z,99510.00
2022-11-06T22:39:11.080Z,99519.00
2022-11-06T22:41:39.347Z,99519.00
2022-11-06T22:44:08.031Z,99519.00
2022-11-06T22:46:36.006Z,99516.00
2022-11-06T22:49:04.627Z,99516.00
2022-11-06T22:51:34.081Z,99516.00
2022-11-06T22:54:03.253Z,99510.00
2022-11-06T22:56:32.046Z,99505.00
2022-11-06T22:59:03.750Z,99500.00
2022-11-06T23:01:36.068Z,99495.00
2022-11-06T23:04:16.423Z,99504.00
2022-11-06T23:06:47.061Z,99502.00
2022-11-06T23:09:15.296Z,99499.00
2022-11-06T23:11:47.025Z,99498.00
2022-11-06T23:14:14.662Z,99498.00
2022-11-06T23:17:00.724Z,99491.00
2022-11-06T23:19:31.325Z,99509.00
2022-11-06T23:22:17.464Z,99501.00
2022-11-06T23:24:45.678Z,99508.00
2022-11-06T23:27:14.748Z,99515.00
2022-11-06T23:29:42.219Z,99524.00
2022-11-06T23:32:09.826Z,99528.00
2022-11-06T23:34:37.278Z,99530.00
2022-11-06T23:37:04.817Z,99530.00
2022-11-06T23:39:32.293Z,99532.00
2022-11-06T23:41:59.622Z,99530.00
2022-11-06T23:44:45.572Z,99537.00
2022-11-06T23:47:13.271Z,99534.00
2022-11-06T23:49:40.842Z,99534.00
2022-11-06T23:52:08.627Z,99541.00
2022-11-06T23:54:36.048Z,99533.00
2022-11-06T23:57:03.433Z,99544.00
2022-11-06T23:59:30.908Z,99542.00
